Accueil
METAR-TAF:

METAR-TAF

Aéroports :

Cranfield, Angleterre

latitude: 52-04N, longitude: 000-37W, altitude: 111 m

Observation

Le bulletin a été fait il y a 5 heures et 51 minutes, à 20:50 UTC
Vent 8 kt de nord
Température 4°C
Humidité 75%
Pression 1030 hPa
Visibilité 10 km ou plus
Nuages épars à une hauteur de 4900 ft

METAR: EGTC 162050Z 01008KT 9999 SCT049 04/M00 Q1030

Heure: 03:41 (02:41 UTC)

Prévision

Le bulletin a été fait il y a 6 heures et 46 minutes, à 19:55 UTC
Prévision valable du 16 à 21 UTC au 16 à 23 UTC
Vent 5 kt de nord/nord-est
Visibilité 10 km ou plus
Quelques nuages à une hauteur de 4500 ft

TAF: EGTC 161955Z 1621/1623 03005KT 9999 FEW045

Observations et prévisions météorologiques de plus de 4000 aéroports (messages METAR et TAF).

Les stations disponibles sont représentées par des disques jaunes et rouges sur la carte.

Passer la souris dessus pour voir le nom de la station.

Cliquer dessus pour voir les observations et prévisions météorologiques.

Pour changer de carte: cliquez sur les boutons verts avec une croix noire pour zoomer, sur le bouton vert avec un tiret pour effectuer un zoom arrière, ou sur les flèches vertes pour les cartes adjacentes.


METAR-TAF: